ANZ945 NCRG-NZAA
Flight info
| Callsign | ANZ945 |
|---|---|
| Flight time | 3h 52m |
| Altitude | 36000 |
| Route | TOKET1P BIXIT G594 AKLOM |
| Aircraft | B77W/H-SDE1E2E3FGHIJ2J3J4J5M1RWXYZ/LB1D1 |
Departure
| Time | 2026-04-21 21:50 |
|---|---|
| Airport | Rarotonga International Airport (NCRG) |
Arrival
| Time | 2026-04-22 01:43 |
|---|---|
| Airport | Auckland International Airport (NZAA) |
| Time | Latitude | Longitude | Altitude | Speed | Heading |
|---|---|---|---|---|---|
| 2026-04-21 21:22 | -21.20073 | -159.79807 | 31 ft | 0 kts | 86° |
| 2026-04-21 21:44 | -21.20073 | -159.79804 | 31 ft | 4 kts | 87° |
| 2026-04-21 21:44 | -21.20089 | -159.79777 | 31 ft | 3 kts | 153° |
| 2026-04-21 21:44 | -21.20106 | -159.79786 | 31 ft | 4 kts | 228° |
| 2026-04-21 21:44 | -21.20125 | -159.79813 | 31 ft | 5 kts | 230° |
| 2026-04-21 21:45 | -21.20191 | -159.79826 | 32 ft | 12 kts | 172° |
| 2026-04-21 21:45 | -21.20256 | -159.79844 | 33 ft | 8 kts | 242° |
| 2026-04-21 21:45 | -21.20257 | -159.79938 | 33 ft | 20 kts | 270° |
| 2026-04-21 21:45 | -21.20257 | -159.80093 | 30 ft | 21 kts | 270° |
| 2026-04-21 21:46 | -21.20257 | -159.80254 | 29 ft | 22 kts | 270° |
| 2026-04-21 21:46 | -21.20257 | -159.80415 | 30 ft | 22 kts | 270° |
| 2026-04-21 21:46 | -21.20257 | -159.80576 | 29 ft | 22 kts | 270° |
| 2026-04-21 21:46 | -21.20257 | -159.80737 | 30 ft | 22 kts | 270° |
| 2026-04-21 21:47 | -21.20258 | -159.80898 | 32 ft | 22 kts | 270° |
| 2026-04-21 21:47 | -21.20258 | -159.81059 | 32 ft | 22 kts | 270° |
| 2026-04-21 21:47 | -21.20258 | -159.81220 | 33 ft | 22 kts | 270° |
| 2026-04-21 21:47 | -21.20257 | -159.81380 | 34 ft | 22 kts | 270° |
| 2026-04-21 21:48 | -21.20257 | -159.81532 | 33 ft | 14 kts | 270° |
| 2026-04-21 21:48 | -21.20214 | -159.81616 | 32 ft | 13 kts | 311° |
| 2026-04-21 21:48 | -21.20234 | -159.81675 | 32 ft | 9 kts | 182° |
| 2026-04-21 21:48 | -21.20258 | -159.81631 | 32 ft | 6 kts | 88° |
| 2026-04-21 21:49 | -21.20258 | -159.81625 | 32 ft | 0 kts | 89° |
| 2026-04-21 21:49 | -21.20258 | -159.81622 | 32 ft | 9 kts | 89° |
| 2026-04-21 21:49 | -21.20257 | -159.81232 | 33 ft | 93 kts | 90° |
| 2026-04-21 21:49 | -21.20257 | -159.80275 | 34 ft | 160 kts | 90° |
| 2026-04-21 21:50 | -21.20249 | -159.79043 | 585 ft | 170 kts | 92° |
| 2026-04-21 21:50 | -21.20158 | -159.77799 | 1414 ft | 167 kts | 77° |
| 2026-04-21 21:50 | -21.19761 | -159.76585 | 1748 ft | 186 kts | 76° |
| 2026-04-21 21:50 | -21.19348 | -159.75161 | 1950 ft | 216 kts | 77° |
| 2026-04-21 21:51 | -21.18846 | -159.73539 | 2169 ft | 243 kts | 64° |
| 2026-04-21 21:51 | -21.17652 | -159.72188 | 2773 ft | 259 kts | 33° |
| 2026-04-21 21:51 | -21.15924 | -159.71605 | 3663 ft | 267 kts | 4° |
| 2026-04-21 21:51 | -21.14070 | -159.71925 | 4357 ft | 278 kts | 336° |
| 2026-04-21 21:52 | -21.12527 | -159.73171 | 5157 ft | 280 kts | 305° |
| 2026-04-21 21:52 | -21.11758 | -159.75022 | 6139 ft | 273 kts | 276° |
| 2026-04-21 21:52 | -21.11902 | -159.76990 | 6959 ft | 267 kts | 249° |
| 2026-04-21 21:52 | -21.12854 | -159.78694 | 7641 ft | 265 kts | 226° |
| 2026-04-21 21:53 | -21.14138 | -159.80149 | 8241 ft | 275 kts | 225° |
| 2026-04-21 21:53 | -21.15489 | -159.81652 | 8859 ft | 284 kts | 225° |
| 2026-04-21 21:53 | -21.16881 | -159.83190 | 9557 ft | 290 kts | 225° |
| 2026-04-21 21:53 | -21.18294 | -159.84749 | 10304 ft | 292 kts | 225° |
| 2026-04-21 21:54 | -21.19744 | -159.86350 | 10784 ft | 309 kts | 225° |
| 2026-04-21 21:54 | -21.21308 | -159.88076 | 10932 ft | 336 kts | 226° |
| 2026-04-21 21:54 | -21.22989 | -159.89940 | 11114 ft | 361 kts | 225° |
| 2026-04-21 21:54 | -21.24758 | -159.91906 | 11694 ft | 371 kts | 225° |
| 2026-04-21 21:55 | -21.26562 | -159.93914 | 12504 ft | 376 kts | 225° |
| 2026-04-21 21:55 | -21.28384 | -159.95945 | 13359 ft | 381 kts | 225° |
| 2026-04-21 21:55 | -21.30219 | -159.97994 | 14316 ft | 380 kts | 225° |
| 2026-04-21 21:55 | -21.32064 | -160.00055 | 14998 ft | 388 kts | 225° |
| 2026-04-21 21:56 | -21.33952 | -160.02164 | 15645 ft | 395 kts | 225° |
| 2026-04-21 21:56 | -21.35866 | -160.04303 | 16383 ft | 400 kts | 225° |
| 2026-04-21 21:56 | -21.37799 | -160.06466 | 17162 ft | 403 kts | 225° |
| 2026-04-21 21:56 | -21.39749 | -160.08648 | 17874 ft | 408 kts | 225° |
| 2026-04-21 21:57 | -21.41725 | -160.10859 | 18557 ft | 413 kts | 225° |
| 2026-04-21 21:57 | -21.43721 | -160.13094 | 19163 ft | 417 kts | 225° |
| 2026-04-21 21:57 | -21.45738 | -160.15354 | 19761 ft | 421 kts | 225° |
| 2026-04-21 21:57 | -21.47773 | -160.17635 | 20373 ft | 425 kts | 225° |
| 2026-04-21 21:58 | -21.49832 | -160.19943 | 20943 ft | 430 kts | 225° |
| 2026-04-21 21:58 | -21.51914 | -160.22278 | 21489 ft | 435 kts | 225° |
| 2026-04-21 21:58 | -21.54014 | -160.24634 | 22131 ft | 438 kts | 225° |
| 2026-04-21 21:58 | -21.56137 | -160.27020 | 22631 ft | 443 kts | 225° |
| 2026-04-21 21:59 | -21.57551 | -160.28606 | 23091 ft | 444 kts | 225° |
| 2026-04-21 21:59 | -21.59700 | -160.31020 | 23618 ft | 449 kts | 225° |
| 2026-04-21 21:59 | -21.61873 | -160.33463 | 24022 ft | 454 kts | 225° |
| 2026-04-21 21:59 | -21.64056 | -160.35922 | 24538 ft | 456 kts | 225° |
| 2026-04-21 22:00 | -21.66254 | -160.38396 | 25007 ft | 459 kts | 225° |
| 2026-04-21 22:00 | -21.68470 | -160.40890 | 25508 ft | 462 kts | 225° |
| 2026-04-21 22:00 | -21.70689 | -160.43389 | 25970 ft | 464 kts | 225° |
| 2026-04-21 22:00 | -21.72924 | -160.45908 | 26450 ft | 467 kts | 225° |
| 2026-04-21 22:01 | -21.75170 | -160.48440 | 26916 ft | 469 kts | 225° |
| 2026-04-21 22:01 | -21.77438 | -160.50997 | 27300 ft | 474 kts | 225° |
| 2026-04-21 22:01 | -21.79717 | -160.53569 | 27694 ft | 478 kts | 225° |
| 2026-04-21 22:01 | -21.82019 | -160.56168 | 28142 ft | 480 kts | 226° |
| 2026-04-21 22:02 | -21.84323 | -160.58771 | 28637 ft | 480 kts | 225° |
| 2026-04-21 22:02 | -21.86632 | -160.61381 | 29049 ft | 483 kts | 226° |
| 2026-04-21 22:02 | -21.88956 | -160.64010 | 29413 ft | 486 kts | 226° |
| 2026-04-21 22:02 | -21.91288 | -160.66648 | 29770 ft | 488 kts | 226° |
| 2026-04-21 22:03 | -21.93638 | -160.69310 | 30082 ft | 491 kts | 226° |
| 2026-04-21 22:03 | -21.96000 | -160.71984 | 30396 ft | 493 kts | 226° |
| 2026-04-21 22:03 | -21.98358 | -160.74663 | 30810 ft | 491 kts | 226° |
| 2026-04-21 22:03 | -22.00636 | -160.77397 | 31305 ft | 489 kts | 228° |
| 2026-04-21 22:04 | -22.02835 | -160.80162 | 31791 ft | 486 kts | 229° |
| 2026-04-21 22:04 | -22.05009 | -160.82948 | 32237 ft | 485 kts | 229° |
| 2026-04-21 22:04 | -22.07174 | -160.85730 | 32672 ft | 483 kts | 229° |
| 2026-04-21 22:04 | -22.09336 | -160.88497 | 33101 ft | 482 kts | 228° |
| 2026-04-21 22:05 | -22.11497 | -160.91248 | 33569 ft | 479 kts | 228° |
| 2026-04-21 22:05 | -22.13651 | -160.93976 | 34032 ft | 477 kts | 227° |
| 2026-04-21 22:05 | -22.15802 | -160.96692 | 34399 ft | 476 kts | 227° |
| 2026-04-21 22:05 | -22.17919 | -160.99361 | 34756 ft | 474 kts | 227° |
| 2026-04-21 22:06 | -22.20086 | -161.02092 | 35149 ft | 471 kts | 227° |
| 2026-04-21 22:06 | -22.22182 | -161.04735 | 35532 ft | 469 kts | 227° |
| 2026-04-21 22:06 | -22.24298 | -161.07404 | 35897 ft | 467 kts | 227° |
| 2026-04-21 22:06 | -22.26408 | -161.10069 | 36103 ft | 468 kts | 227° |
| 2026-04-21 22:07 | -22.28536 | -161.12755 | 36084 ft | 471 kts | 227° |
| 2026-04-21 22:07 | -22.32774 | -161.18114 | 36084 ft | 466 kts | 227° |
| 2026-04-21 22:08 | -22.36962 | -161.23420 | 36079 ft | 463 kts | 227° |
| 2026-04-21 22:08 | -22.41136 | -161.28710 | 36086 ft | 462 kts | 227° |
| 2026-04-21 22:09 | -22.45303 | -161.33995 | 36090 ft | 462 kts | 227° |
| 2026-04-21 22:09 | -22.49474 | -161.39291 | 36089 ft | 463 kts | 227° |
| 2026-04-21 22:10 | -22.53650 | -161.44600 | 36088 ft | 464 kts | 227° |
| 2026-04-21 22:10 | -22.57833 | -161.49923 | 36089 ft | 465 kts | 227° |
| 2026-04-21 22:11 | -22.62025 | -161.55263 | 36091 ft | 466 kts | 227° |
| 2026-04-21 22:11 | -22.66221 | -161.60613 | 36093 ft | 466 kts | 228° |
| 2026-04-21 22:12 | -22.70416 | -161.65968 | 36093 ft | 466 kts | 228° |
| 2026-04-21 22:12 | -22.74608 | -161.71326 | 36087 ft | 466 kts | 228° |
| 2026-04-21 22:13 | -22.78796 | -161.76684 | 36086 ft | 465 kts | 228° |
| 2026-04-21 22:13 | -22.82978 | -161.82038 | 36089 ft | 465 kts | 228° |
| 2026-04-21 22:14 | -22.87149 | -161.87386 | 36092 ft | 464 kts | 228° |
| 2026-04-21 22:14 | -22.91290 | -161.92698 | 36086 ft | 464 kts | 229° |
| 2026-04-21 22:15 | -22.95452 | -161.98044 | 36089 ft | 464 kts | 229° |
| 2026-04-21 22:15 | -22.99613 | -162.03395 | 36094 ft | 464 kts | 229° |
| 2026-04-21 22:16 | -23.03770 | -162.08745 | 36101 ft | 464 kts | 229° |
| 2026-04-21 22:16 | -23.07923 | -162.14097 | 36095 ft | 463 kts | 229° |
| 2026-04-21 22:17 | -23.12075 | -162.19452 | 36092 ft | 463 kts | 229° |
| 2026-04-21 22:17 | -23.16223 | -162.24810 | 36094 ft | 463 kts | 229° |
| 2026-04-21 22:18 | -23.20367 | -162.30166 | 36089 ft | 463 kts | 229° |
| 2026-04-21 22:18 | -23.24510 | -162.35527 | 36096 ft | 463 kts | 229° |
| 2026-04-21 22:19 | -23.28647 | -162.40886 | 36092 ft | 463 kts | 229° |
| 2026-04-21 22:19 | -23.32789 | -162.46257 | 36093 ft | 463 kts | 229° |
| 2026-04-21 22:20 | -23.36925 | -162.51626 | 36093 ft | 463 kts | 229° |
| 2026-04-21 22:20 | -23.41063 | -162.57003 | 36104 ft | 463 kts | 229° |
| 2026-04-21 22:21 | -23.45194 | -162.62377 | 36085 ft | 463 kts | 230° |
| 2026-04-21 22:21 | -23.49322 | -162.67753 | 36091 ft | 462 kts | 230° |
| 2026-04-21 22:22 | -23.53447 | -162.73131 | 36096 ft | 462 kts | 230° |
| 2026-04-21 22:22 | -23.57568 | -162.78509 | 36095 ft | 462 kts | 230° |
| 2026-04-21 22:23 | -23.61685 | -162.83888 | 36095 ft | 462 kts | 230° |
| 2026-04-21 22:23 | -23.65803 | -162.89274 | 36095 ft | 462 kts | 230° |
| 2026-04-21 22:24 | -23.69918 | -162.94663 | 36095 ft | 462 kts | 230° |
| 2026-04-21 22:24 | -23.74037 | -163.00061 | 36092 ft | 463 kts | 230° |
| 2026-04-21 22:25 | -23.78151 | -163.05459 | 36096 ft | 463 kts | 230° |
| 2026-04-21 22:25 | -23.82241 | -163.10833 | 36098 ft | 463 kts | 230° |
| 2026-04-21 22:26 | -23.86361 | -163.16250 | 36096 ft | 463 kts | 230° |
| 2026-04-21 22:26 | -23.90474 | -163.21666 | 36095 ft | 464 kts | 230° |
| 2026-04-21 22:27 | -23.94594 | -163.27095 | 36096 ft | 464 kts | 230° |
| 2026-04-21 22:27 | -23.98710 | -163.32524 | 36093 ft | 464 kts | 230° |
| 2026-04-21 22:28 | -24.02827 | -163.37963 | 36098 ft | 464 kts | 231° |
| 2026-04-21 22:28 | -24.06949 | -163.43414 | 36094 ft | 465 kts | 231° |
| 2026-04-21 22:29 | -24.11066 | -163.48864 | 36103 ft | 465 kts | 231° |
| 2026-04-21 22:29 | -24.15180 | -163.54317 | 36096 ft | 464 kts | 231° |
| 2026-04-21 22:30 | -24.19289 | -163.59767 | 36093 ft | 463 kts | 231° |
| 2026-04-21 22:30 | -24.23386 | -163.65209 | 36093 ft | 463 kts | 231° |
| 2026-04-21 22:31 | -24.27481 | -163.70654 | 36092 ft | 463 kts | 231° |
| 2026-04-21 22:31 | -24.31578 | -163.76108 | 36094 ft | 464 kts | 231° |
| 2026-04-21 22:32 | -24.35675 | -163.81569 | 36093 ft | 464 kts | 231° |
| 2026-04-21 22:32 | -24.39778 | -163.87043 | 36096 ft | 465 kts | 231° |
| 2026-04-21 22:33 | -24.43883 | -163.92526 | 36093 ft | 465 kts | 231° |
| 2026-04-21 22:33 | -24.47987 | -163.98014 | 36104 ft | 465 kts | 231° |
| 2026-04-21 22:34 | -24.52084 | -164.03499 | 36093 ft | 464 kts | 231° |
| 2026-04-21 22:34 | -24.56171 | -164.08976 | 36095 ft | 463 kts | 231° |
| 2026-04-21 22:35 | -24.60245 | -164.14443 | 36090 ft | 462 kts | 231° |
| 2026-04-21 22:35 | -24.64285 | -164.19870 | 36092 ft | 461 kts | 231° |
| 2026-04-21 22:36 | -24.70370 | -164.28055 | 36095 ft | 461 kts | 231° |
| 2026-04-21 22:36 | -24.74427 | -164.33521 | 36096 ft | 461 kts | 231° |
| 2026-04-21 22:37 | -24.78484 | -164.38991 | 36086 ft | 461 kts | 231° |
| 2026-04-21 22:37 | -24.82540 | -164.44468 | 36107 ft | 462 kts | 232° |
| 2026-04-21 22:38 | -24.86595 | -164.49950 | 36094 ft | 462 kts | 232° |
| 2026-04-21 22:38 | -24.90646 | -164.55432 | 36090 ft | 461 kts | 232° |
| 2026-04-21 22:39 | -24.94693 | -164.60916 | 36093 ft | 461 kts | 232° |
| 2026-04-21 22:39 | -24.98735 | -164.66398 | 36093 ft | 461 kts | 232° |
| 2026-04-21 22:40 | -25.02771 | -164.71880 | 36091 ft | 460 kts | 232° |
| 2026-04-21 22:40 | -25.06804 | -164.77363 | 36091 ft | 460 kts | 232° |
| 2026-04-21 22:41 | -25.10834 | -164.82850 | 36092 ft | 460 kts | 232° |
| 2026-04-21 22:41 | -25.14865 | -164.88342 | 36091 ft | 460 kts | 232° |
| 2026-04-21 22:42 | -25.18890 | -164.93835 | 36101 ft | 460 kts | 232° |
| 2026-04-21 22:42 | -25.22911 | -164.99327 | 36093 ft | 460 kts | 232° |
| 2026-04-21 22:43 | -25.26946 | -165.04816 | 36092 ft | 460 kts | 232° |
| 2026-04-21 22:43 | -25.30964 | -165.10255 | 36095 ft | 460 kts | 232° |
| 2026-04-21 22:44 | -25.35001 | -165.15730 | 36093 ft | 459 kts | 232° |
| 2026-04-21 22:44 | -25.39030 | -165.21206 | 36096 ft | 459 kts | 232° |
| 2026-04-21 22:45 | -25.43051 | -165.26680 | 36085 ft | 458 kts | 232° |
| 2026-04-21 22:45 | -25.47068 | -165.32155 | 36089 ft | 458 kts | 232° |
| 2026-04-21 22:46 | -25.51078 | -165.37627 | 36088 ft | 458 kts | 232° |
| 2026-04-21 22:46 | -25.55093 | -165.43112 | 36096 ft | 459 kts | 233° |
| 2026-04-21 22:47 | -25.59110 | -165.48604 | 36085 ft | 459 kts | 233° |
| 2026-04-21 22:47 | -25.63129 | -165.54109 | 36088 ft | 460 kts | 233° |
| 2026-04-21 22:48 | -25.66473 | -165.58693 | 36093 ft | 460 kts | 233° |
| 2026-04-21 22:48 | -25.70495 | -165.64213 | 36089 ft | 460 kts | 233° |
| 2026-04-21 22:49 | -25.74519 | -165.69741 | 36084 ft | 461 kts | 233° |
| 2026-04-21 22:49 | -25.78542 | -165.75275 | 36085 ft | 461 kts | 233° |
| 2026-04-21 22:50 | -25.82562 | -165.80810 | 36089 ft | 460 kts | 233° |
| 2026-04-21 22:50 | -25.86577 | -165.86347 | 36086 ft | 460 kts | 233° |
| 2026-04-21 22:51 | -25.90587 | -165.91883 | 36097 ft | 460 kts | 234° |
| 2026-04-21 22:51 | -25.94590 | -165.97416 | 36076 ft | 459 kts | 234° |
| 2026-04-21 22:52 | -25.98587 | -166.02947 | 36082 ft | 458 kts | 234° |
| 2026-04-21 22:52 | -26.02572 | -166.08468 | 36086 ft | 458 kts | 234° |
| 2026-04-21 22:53 | -26.06549 | -166.13987 | 36067 ft | 457 kts | 234° |
| 2026-04-21 22:53 | -26.10528 | -166.19513 | 36086 ft | 457 kts | 234° |
| 2026-04-21 22:54 | -26.14506 | -166.25045 | 36080 ft | 458 kts | 234° |
| 2026-04-21 22:54 | -26.18460 | -166.30550 | 36072 ft | 459 kts | 234° |
| 2026-04-21 22:55 | -26.22447 | -166.36108 | 36102 ft | 459 kts | 234° |
| 2026-04-21 22:55 | -26.26429 | -166.41665 | 36076 ft | 459 kts | 235° |
| 2026-04-21 22:56 | -26.30407 | -166.47223 | 36075 ft | 459 kts | 235° |
| 2026-04-21 22:56 | -26.34381 | -166.52783 | 36076 ft | 458 kts | 235° |
| 2026-04-21 22:57 | -26.38345 | -166.58336 | 36075 ft | 458 kts | 235° |
| 2026-04-21 22:57 | -26.42306 | -166.63891 | 36076 ft | 457 kts | 235° |
| 2026-04-21 22:58 | -26.46263 | -166.69448 | 36072 ft | 457 kts | 235° |
| 2026-04-21 22:58 | -26.50214 | -166.75002 | 36074 ft | 457 kts | 235° |
| 2026-04-21 22:59 | -26.54165 | -166.80564 | 36076 ft | 457 kts | 235° |
| 2026-04-21 22:59 | -26.58106 | -166.86120 | 36084 ft | 456 kts | 236° |
| 2026-04-21 23:00 | -26.62040 | -166.91670 | 36073 ft | 455 kts | 236° |
| 2026-04-21 23:00 | -26.65957 | -166.97204 | 36072 ft | 453 kts | 236° |
| 2026-04-21 23:01 | -26.69834 | -167.02689 | 36070 ft | 452 kts | 236° |
| 2026-04-21 23:01 | -26.73725 | -167.08200 | 36070 ft | 451 kts | 236° |
| 2026-04-21 23:02 | -26.77612 | -167.13713 | 36071 ft | 451 kts | 236° |
| 2026-04-21 23:02 | -26.81495 | -167.19228 | 36071 ft | 451 kts | 236° |
| 2026-04-21 23:03 | -26.85382 | -167.24753 | 36077 ft | 452 kts | 236° |
| 2026-04-21 23:03 | -26.89270 | -167.30287 | 36069 ft | 452 kts | 236° |
| 2026-04-21 23:04 | -26.93159 | -167.35830 | 36071 ft | 453 kts | 237° |
| 2026-04-21 23:04 | -26.97047 | -167.41378 | 36064 ft | 453 kts | 237° |
| 2026-04-21 23:05 | -27.00931 | -167.46926 | 36066 ft | 452 kts | 237° |
| 2026-04-21 23:05 | -27.04813 | -167.52481 | 36060 ft | 452 kts | 237° |
| 2026-04-21 23:06 | -27.08690 | -167.58033 | 36060 ft | 452 kts | 237° |
| 2026-04-21 23:06 | -27.12564 | -167.63588 | 36057 ft | 452 kts | 237° |
| 2026-04-21 23:07 | -27.16444 | -167.69162 | 36062 ft | 453 kts | 237° |
| 2026-04-21 23:07 | -27.20327 | -167.74745 | 36062 ft | 454 kts | 237° |
| 2026-04-21 23:08 | -27.24213 | -167.80339 | 36059 ft | 455 kts | 237° |
| 2026-04-21 23:08 | -27.28103 | -167.85946 | 36058 ft | 455 kts | 237° |
| 2026-04-21 23:09 | -27.31968 | -167.91523 | 36055 ft | 455 kts | 237° |
| 2026-04-21 23:09 | -27.35856 | -167.97142 | 36052 ft | 455 kts | 237° |
| 2026-04-21 23:10 | -27.39741 | -168.02764 | 36059 ft | 455 kts | 237° |
| 2026-04-21 23:10 | -27.43630 | -168.08398 | 36057 ft | 456 kts | 237° |
| 2026-04-21 23:11 | -27.47518 | -168.14038 | 36053 ft | 456 kts | 237° |
| 2026-04-21 23:11 | -27.51403 | -168.19680 | 36054 ft | 456 kts | 237° |
| 2026-04-21 23:12 | -27.55285 | -168.25326 | 36052 ft | 456 kts | 237° |
| 2026-04-21 23:12 | -27.59166 | -168.30979 | 36060 ft | 456 kts | 237° |
| 2026-04-21 23:13 | -27.63043 | -168.36631 | 36051 ft | 455 kts | 237° |
| 2026-04-21 23:13 | -27.66912 | -168.42280 | 36052 ft | 455 kts | 237° |
| 2026-04-21 23:14 | -27.70771 | -168.47923 | 36048 ft | 454 kts | 238° |
| 2026-04-21 23:14 | -27.74629 | -168.53569 | 36050 ft | 454 kts | 238° |
| 2026-04-21 23:15 | -27.78480 | -168.59215 | 36048 ft | 454 kts | 238° |
| 2026-04-21 23:15 | -27.82328 | -168.64863 | 36049 ft | 454 kts | 238° |
| 2026-04-21 23:16 | -27.86173 | -168.70512 | 36050 ft | 454 kts | 238° |
| 2026-04-21 23:16 | -27.90019 | -168.76171 | 36046 ft | 454 kts | 238° |
| 2026-04-21 23:17 | -27.93863 | -168.81837 | 36049 ft | 454 kts | 238° |
| 2026-04-21 23:17 | -27.97704 | -168.87504 | 36042 ft | 454 kts | 238° |
| 2026-04-21 23:18 | -28.01513 | -168.93131 | 36043 ft | 453 kts | 238° |
| 2026-04-21 23:18 | -28.05341 | -168.98793 | 36041 ft | 453 kts | 238° |
| 2026-04-21 23:19 | -28.09164 | -169.04457 | 36039 ft | 453 kts | 238° |
| 2026-04-21 23:19 | -28.12985 | -169.10123 | 36042 ft | 453 kts | 238° |
| 2026-04-21 23:20 | -28.16804 | -169.15797 | 36040 ft | 453 kts | 238° |
| 2026-04-21 23:20 | -28.20621 | -169.21474 | 36037 ft | 453 kts | 238° |
| 2026-04-21 23:21 | -28.24437 | -169.27155 | 36050 ft | 453 kts | 239° |
| 2026-04-21 23:21 | -28.28248 | -169.32838 | 36037 ft | 452 kts | 239° |
| 2026-04-21 23:22 | -28.32050 | -169.38514 | 36034 ft | 451 kts | 239° |
| 2026-04-21 23:22 | -28.35846 | -169.44188 | 36029 ft | 451 kts | 239° |
| 2026-04-21 23:23 | -28.39633 | -169.49860 | 36036 ft | 451 kts | 239° |
| 2026-04-21 23:23 | -28.43420 | -169.55537 | 36031 ft | 451 kts | 239° |
| 2026-04-21 23:24 | -28.47208 | -169.61224 | 36040 ft | 451 kts | 239° |
| 2026-04-21 23:24 | -28.50998 | -169.66921 | 36032 ft | 452 kts | 239° |
| 2026-04-21 23:25 | -28.54784 | -169.72620 | 36030 ft | 452 kts | 239° |
| 2026-04-21 23:25 | -28.58570 | -169.78325 | 36043 ft | 452 kts | 239° |
| 2026-04-21 23:26 | -28.62351 | -169.84032 | 36043 ft | 451 kts | 240° |
| 2026-04-21 23:26 | -28.66121 | -169.89731 | 36032 ft | 450 kts | 240° |
| 2026-04-21 23:27 | -28.69860 | -169.95390 | 36032 ft | 450 kts | 240° |
| 2026-04-21 23:27 | -28.73616 | -170.01080 | 36032 ft | 449 kts | 240° |
| 2026-04-21 23:28 | -28.77366 | -170.06766 | 36032 ft | 449 kts | 240° |
| 2026-04-21 23:28 | -28.81111 | -170.12453 | 36033 ft | 449 kts | 240° |
| 2026-04-21 23:29 | -28.84856 | -170.18148 | 36052 ft | 448 kts | 240° |
| 2026-04-21 23:29 | -28.88595 | -170.23844 | 36037 ft | 448 kts | 240° |
| 2026-04-21 23:30 | -28.92329 | -170.29537 | 36027 ft | 447 kts | 240° |
| 2026-04-21 23:30 | -28.96050 | -170.35218 | 36032 ft | 446 kts | 240° |
| 2026-04-21 23:31 | -28.99759 | -170.40890 | 36032 ft | 445 kts | 240° |
| 2026-04-21 23:31 | -29.03455 | -170.46551 | 36034 ft | 444 kts | 240° |
| 2026-04-21 23:32 | -29.07147 | -170.52213 | 36035 ft | 444 kts | 240° |
| 2026-04-21 23:32 | -29.10833 | -170.57872 | 36038 ft | 444 kts | 240° |
| 2026-04-21 23:33 | -29.14517 | -170.63538 | 36037 ft | 444 kts | 240° |
| 2026-04-21 23:33 | -29.18201 | -170.69211 | 36033 ft | 444 kts | 241° |
| 2026-04-21 23:34 | -29.21878 | -170.74880 | 36053 ft | 444 kts | 241° |
| 2026-04-21 23:34 | -29.25553 | -170.80553 | 36039 ft | 444 kts | 241° |
| 2026-04-21 23:35 | -29.29226 | -170.86233 | 36030 ft | 443 kts | 241° |
| 2026-04-21 23:35 | -29.32892 | -170.91907 | 36045 ft | 443 kts | 242° |
| 2026-04-21 23:36 | -29.36528 | -170.97544 | 36028 ft | 443 kts | 242° |
| 2026-04-21 23:36 | -29.40182 | -171.03217 | 36029 ft | 442 kts | 242° |
| 2026-04-21 23:37 | -29.43832 | -171.08891 | 36028 ft | 442 kts | 242° |
| 2026-04-21 23:37 | -29.46888 | -171.13648 | 36030 ft | 442 kts | 242° |
| 2026-04-21 23:38 | -29.50533 | -171.19329 | 36029 ft | 442 kts | 242° |
| 2026-04-21 23:38 | -29.54174 | -171.25011 | 36056 ft | 442 kts | 242° |
| 2026-04-21 23:39 | -29.57818 | -171.30707 | 36033 ft | 443 kts | 242° |
| 2026-04-21 23:39 | -29.61456 | -171.36400 | 36029 ft | 442 kts | 242° |
| 2026-04-21 23:40 | -29.65091 | -171.42096 | 36029 ft | 441 kts | 242° |
| 2026-04-21 23:40 | -29.68694 | -171.47749 | 36029 ft | 441 kts | 242° |
| 2026-04-21 23:41 | -29.72315 | -171.53441 | 36030 ft | 441 kts | 242° |
| 2026-04-21 23:41 | -29.75933 | -171.59133 | 36030 ft | 440 kts | 242° |
| 2026-04-21 23:42 | -29.79542 | -171.64822 | 36027 ft | 440 kts | 242° |
| 2026-04-21 23:42 | -29.83152 | -171.70520 | 36035 ft | 440 kts | 243° |
| 2026-04-21 23:43 | -29.86755 | -171.76212 | 36052 ft | 440 kts | 243° |
| 2026-04-21 23:43 | -29.90351 | -171.81901 | 36030 ft | 438 kts | 243° |
| 2026-04-21 23:44 | -29.93937 | -171.87583 | 36023 ft | 437 kts | 243° |
| 2026-04-21 23:44 | -29.97505 | -171.93246 | 36024 ft | 436 kts | 243° |
| 2026-04-21 23:45 | -30.02848 | -172.01741 | 36024 ft | 436 kts | 243° |
| 2026-04-21 23:46 | -30.06399 | -172.07398 | 36022 ft | 436 kts | 243° |
| 2026-04-21 23:46 | -30.09955 | -172.13070 | 36024 ft | 436 kts | 243° |
| 2026-04-21 23:47 | -30.13509 | -172.18746 | 36023 ft | 436 kts | 243° |
| 2026-04-21 23:47 | -30.17067 | -172.24435 | 36056 ft | 437 kts | 244° |
| 2026-04-21 23:48 | -30.20621 | -172.30127 | 36027 ft | 437 kts | 244° |
| 2026-04-21 23:48 | -30.24172 | -172.35820 | 36018 ft | 436 kts | 244° |
| 2026-04-21 23:49 | -30.27691 | -172.41470 | 36031 ft | 435 kts | 244° |
| 2026-04-21 23:49 | -30.31225 | -172.47154 | 36013 ft | 435 kts | 244° |
| 2026-04-21 23:50 | -30.34749 | -172.52831 | 36013 ft | 434 kts | 244° |
| 2026-04-21 23:50 | -30.38265 | -172.58501 | 36013 ft | 433 kts | 244° |
| 2026-04-21 23:51 | -30.41774 | -172.64170 | 36013 ft | 433 kts | 244° |
| 2026-04-21 23:51 | -30.45279 | -172.69839 | 36011 ft | 433 kts | 244° |
| 2026-04-21 23:52 | -30.48782 | -172.75514 | 36010 ft | 433 kts | 244° |
| 2026-04-21 23:52 | -30.52285 | -172.81196 | 36019 ft | 433 kts | 245° |
| 2026-04-21 23:53 | -30.55788 | -172.86887 | 36010 ft | 434 kts | 245° |
| 2026-04-21 23:53 | -30.59289 | -172.92582 | 36007 ft | 434 kts | 245° |
| 2026-04-21 23:54 | -30.62790 | -172.98285 | 36008 ft | 433 kts | 245° |
| 2026-04-21 23:54 | -30.66287 | -173.03989 | 36008 ft | 433 kts | 245° |
| 2026-04-21 23:55 | -30.69780 | -173.09695 | 36006 ft | 433 kts | 245° |
| 2026-04-21 23:55 | -30.73270 | -173.15405 | 36008 ft | 433 kts | 245° |
| 2026-04-21 23:56 | -30.76757 | -173.21119 | 36010 ft | 433 kts | 245° |
| 2026-04-21 23:56 | -30.80242 | -173.26837 | 36013 ft | 433 kts | 245° |
| 2026-04-21 23:57 | -30.83696 | -173.32510 | 36014 ft | 432 kts | 245° |
| 2026-04-21 23:57 | -30.87162 | -173.38213 | 36007 ft | 431 kts | 245° |
| 2026-04-21 23:58 | -30.90615 | -173.43903 | 36008 ft | 430 kts | 245° |
| 2026-04-21 23:58 | -30.94062 | -173.49591 | 36003 ft | 429 kts | 246° |
| 2026-04-21 23:59 | -30.97499 | -173.55272 | 36018 ft | 429 kts | 246° |
| 2026-04-21 23:59 | -31.00940 | -173.60969 | 36007 ft | 430 kts | 246° |
| 2026-04-22 00:00 | -31.04382 | -173.66675 | 36003 ft | 430 kts | 246° |
| 2026-04-22 00:00 | -31.07824 | -173.72387 | 36006 ft | 431 kts | 246° |
| 2026-04-22 00:01 | -31.11266 | -173.78109 | 36022 ft | 431 kts | 246° |
| 2026-04-22 00:01 | -31.14709 | -173.83841 | 35994 ft | 431 kts | 246° |
| 2026-04-22 00:02 | -31.18140 | -173.89558 | 36004 ft | 430 kts | 246° |
| 2026-04-22 00:02 | -31.21562 | -173.95270 | 36010 ft | 429 kts | 247° |
| 2026-04-22 00:03 | -31.24978 | -174.00983 | 36005 ft | 428 kts | 247° |
| 2026-04-22 00:03 | -31.28387 | -174.06691 | 36006 ft | 428 kts | 247° |
| 2026-04-22 00:04 | -31.31789 | -174.12399 | 36007 ft | 428 kts | 247° |
| 2026-04-22 00:04 | -31.35190 | -174.18111 | 36006 ft | 428 kts | 247° |
| 2026-04-22 00:05 | -31.38591 | -174.23831 | 36008 ft | 428 kts | 247° |
| 2026-04-22 00:05 | -31.41987 | -174.29550 | 36040 ft | 428 kts | 248° |
| 2026-04-22 00:06 | -31.45380 | -174.35272 | 36011 ft | 427 kts | 248° |
| 2026-04-22 00:06 | -31.48758 | -174.40975 | 36000 ft | 425 kts | 248° |
| 2026-04-22 00:07 | -31.52121 | -174.46665 | 35995 ft | 424 kts | 248° |
| 2026-04-22 00:07 | -31.55468 | -174.52337 | 35994 ft | 423 kts | 248° |
| 2026-04-22 00:08 | -31.58787 | -174.57971 | 35996 ft | 423 kts | 248° |
| 2026-04-22 00:08 | -31.62127 | -174.63648 | 35998 ft | 423 kts | 248° |
| 2026-04-22 00:09 | -31.65465 | -174.69330 | 36016 ft | 423 kts | 248° |
| 2026-04-22 00:09 | -31.68806 | -174.75022 | 35996 ft | 423 kts | 248° |
| 2026-04-22 00:10 | -31.72141 | -174.80714 | 35999 ft | 423 kts | 249° |
| 2026-04-22 00:10 | -31.75467 | -174.86401 | 35983 ft | 422 kts | 249° |
| 2026-04-22 00:11 | -31.78789 | -174.92088 | 35988 ft | 422 kts | 249° |
| 2026-04-22 00:11 | -31.82109 | -174.97781 | 35983 ft | 422 kts | 249° |
| 2026-04-22 00:12 | -31.85426 | -175.03474 | 35984 ft | 422 kts | 249° |
| 2026-04-22 00:12 | -31.88744 | -175.09179 | 35993 ft | 423 kts | 249° |
| 2026-04-22 00:13 | -31.92063 | -175.14895 | 35981 ft | 423 kts | 249° |
| 2026-04-22 00:13 | -31.95384 | -175.20623 | 35981 ft | 424 kts | 249° |
| 2026-04-22 00:14 | -31.98706 | -175.26360 | 36013 ft | 424 kts | 249° |
| 2026-04-22 00:14 | -32.02026 | -175.32103 | 35988 ft | 424 kts | 249° |
| 2026-04-22 00:15 | -32.05316 | -175.37800 | 35974 ft | 423 kts | 249° |
| 2026-04-22 00:15 | -32.08616 | -175.43526 | 36003 ft | 422 kts | 249° |
| 2026-04-22 00:16 | -32.11914 | -175.49258 | 35983 ft | 422 kts | 249° |
| 2026-04-22 00:16 | -32.15204 | -175.54986 | 35974 ft | 422 kts | 250° |
| 2026-04-22 00:17 | -32.18489 | -175.60712 | 35973 ft | 421 kts | 250° |
| 2026-04-22 00:17 | -32.21773 | -175.66444 | 35972 ft | 421 kts | 250° |
| 2026-04-22 00:18 | -32.25052 | -175.72178 | 35973 ft | 421 kts | 250° |
| 2026-04-22 00:18 | -32.28329 | -175.77917 | 36021 ft | 421 kts | 250° |
| 2026-04-22 00:19 | -32.31610 | -175.83672 | 35982 ft | 422 kts | 250° |
| 2026-04-22 00:19 | -32.34889 | -175.89429 | 35971 ft | 422 kts | 250° |
| 2026-04-22 00:20 | -32.38164 | -175.95188 | 35965 ft | 422 kts | 250° |
| 2026-04-22 00:20 | -32.41432 | -176.00946 | 35968 ft | 421 kts | 250° |
| 2026-04-22 00:21 | -32.44694 | -176.06700 | 35969 ft | 421 kts | 250° |
| 2026-04-22 00:21 | -32.47950 | -176.12455 | 35965 ft | 421 kts | 250° |
| 2026-04-22 00:22 | -32.51184 | -176.18178 | 35986 ft | 421 kts | 250° |
| 2026-04-22 00:22 | -32.54436 | -176.23944 | 35972 ft | 421 kts | 251° |
| 2026-04-22 00:23 | -32.57695 | -176.29731 | 35980 ft | 422 kts | 251° |
| 2026-04-22 00:23 | -32.60952 | -176.35522 | 35968 ft | 422 kts | 251° |
| 2026-04-22 00:24 | -32.64208 | -176.41318 | 35963 ft | 422 kts | 251° |
| 2026-04-22 00:24 | -32.67460 | -176.47116 | 35962 ft | 422 kts | 251° |
| 2026-04-22 00:25 | -32.70706 | -176.52913 | 35956 ft | 421 kts | 251° |
| 2026-04-22 00:25 | -32.73946 | -176.58708 | 35974 ft | 421 kts | 252° |
| 2026-04-22 00:26 | -32.77186 | -176.64516 | 35966 ft | 422 kts | 252° |
| 2026-04-22 00:26 | -32.80424 | -176.70326 | 35952 ft | 422 kts | 252° |
| 2026-04-22 00:27 | -32.83112 | -176.75157 | 35957 ft | 421 kts | 252° |
| 2026-04-22 00:27 | -32.86867 | -176.81914 | 35948 ft | 421 kts | 252° |
| 2026-04-22 00:28 | -32.90086 | -176.87714 | 35952 ft | 420 kts | 252° |
| 2026-04-22 00:28 | -32.92775 | -176.92567 | 35950 ft | 418 kts | 252° |
| 2026-04-22 00:29 | -32.95972 | -176.98348 | 35957 ft | 418 kts | 253° |
| 2026-04-22 00:29 | -32.99156 | -177.04112 | 35955 ft | 416 kts | 253° |
| 2026-04-22 00:30 | -33.02326 | -177.09862 | 35949 ft | 415 kts | 253° |
| 2026-04-22 00:30 | -33.05485 | -177.15603 | 35950 ft | 414 kts | 253° |
| 2026-04-22 00:31 | -33.08640 | -177.21344 | 35949 ft | 414 kts | 253° |
| 2026-04-22 00:31 | -33.11792 | -177.27090 | 35950 ft | 414 kts | 253° |
| 2026-04-22 00:32 | -33.14941 | -177.32840 | 35998 ft | 415 kts | 253° |
| 2026-04-22 00:32 | -33.18098 | -177.38614 | 35954 ft | 415 kts | 253° |
| 2026-04-22 00:33 | -33.21232 | -177.44348 | 35946 ft | 415 kts | 253° |
| 2026-04-22 00:33 | -33.24378 | -177.50112 | 35943 ft | 414 kts | 253° |
| 2026-04-22 00:34 | -33.27515 | -177.55873 | 35943 ft | 413 kts | 253° |
| 2026-04-22 00:34 | -33.30646 | -177.61632 | 35941 ft | 413 kts | 253° |
| 2026-04-22 00:35 | -33.33772 | -177.67392 | 35945 ft | 413 kts | 253° |
| 2026-04-22 00:35 | -33.36897 | -177.73160 | 35954 ft | 414 kts | 254° |
| 2026-04-22 00:36 | -33.40024 | -177.78941 | 35944 ft | 414 kts | 254° |
| 2026-04-22 00:36 | -33.43150 | -177.84725 | 35939 ft | 414 kts | 254° |
| 2026-04-22 00:37 | -33.46274 | -177.90515 | 35937 ft | 414 kts | 254° |
| 2026-04-22 00:37 | -33.49392 | -177.96305 | 35937 ft | 414 kts | 254° |
| 2026-04-22 00:38 | -33.52507 | -178.02098 | 35937 ft | 414 kts | 254° |
| 2026-04-22 00:38 | -33.55622 | -178.07900 | 35937 ft | 414 kts | 254° |
| 2026-04-22 00:39 | -33.58735 | -178.13710 | 35939 ft | 414 kts | 254° |
| 2026-04-22 00:39 | -33.61846 | -178.19521 | 35937 ft | 414 kts | 254° |
| 2026-04-22 00:40 | -33.64954 | -178.25338 | 35938 ft | 414 kts | 254° |
| 2026-04-22 00:40 | -33.68055 | -178.31150 | 35973 ft | 414 kts | 254° |
| 2026-04-22 00:41 | -33.71156 | -178.36975 | 35943 ft | 414 kts | 254° |
| 2026-04-22 00:41 | -33.74249 | -178.42789 | 35942 ft | 413 kts | 254° |
| 2026-04-22 00:42 | -33.77334 | -178.48598 | 35958 ft | 412 kts | 254° |
| 2026-04-22 00:42 | -33.80416 | -178.54416 | 35939 ft | 413 kts | 254° |
| 2026-04-22 00:43 | -33.83478 | -178.60203 | 35935 ft | 413 kts | 254° |
| 2026-04-22 00:43 | -33.86556 | -178.66027 | 35935 ft | 413 kts | 254° |
| 2026-04-22 00:44 | -33.89632 | -178.71859 | 35927 ft | 413 kts | 254° |
| 2026-04-22 00:44 | -33.92702 | -178.77689 | 35929 ft | 413 kts | 254° |
| 2026-04-22 00:45 | -33.95772 | -178.83528 | 35966 ft | 413 kts | 254° |
| 2026-04-22 00:45 | -33.98848 | -178.89394 | 35937 ft | 415 kts | 254° |
| 2026-04-22 00:46 | -34.01930 | -178.95273 | 35928 ft | 415 kts | 254° |
| 2026-04-22 00:46 | -34.05010 | -179.01157 | 35926 ft | 415 kts | 254° |
| 2026-04-22 00:47 | -34.08088 | -179.07047 | 35925 ft | 415 kts | 254° |
| 2026-04-22 00:47 | -34.11160 | -179.12938 | 35926 ft | 415 kts | 254° |
| 2026-04-22 00:48 | -34.14231 | -179.18835 | 35925 ft | 415 kts | 254° |
| 2026-04-22 00:48 | -34.17299 | -179.24739 | 35955 ft | 415 kts | 254° |
| 2026-04-22 00:49 | -34.20369 | -179.30658 | 35931 ft | 416 kts | 254° |
| 2026-04-22 00:49 | -34.23445 | -179.36599 | 35939 ft | 418 kts | 253° |
| 2026-04-22 00:50 | -34.26533 | -179.42568 | 35931 ft | 419 kts | 253° |
| 2026-04-22 00:50 | -34.29599 | -179.48504 | 35925 ft | 419 kts | 253° |
| 2026-04-22 00:51 | -34.32708 | -179.54532 | 35928 ft | 419 kts | 253° |
| 2026-04-22 00:51 | -34.35770 | -179.60480 | 35925 ft | 419 kts | 253° |
| 2026-04-22 00:52 | -34.38847 | -179.66468 | 35924 ft | 419 kts | 253° |
| 2026-04-22 00:52 | -34.41922 | -179.72463 | 35926 ft | 419 kts | 253° |
| 2026-04-22 00:53 | -34.44990 | -179.78455 | 35926 ft | 419 kts | 253° |
| 2026-04-22 00:53 | -34.48053 | -179.84448 | 35967 ft | 419 kts | 253° |
| 2026-04-22 00:54 | -34.51119 | -179.90460 | 35938 ft | 419 kts | 253° |
| 2026-04-22 00:54 | -34.54189 | -179.96485 | 35932 ft | 420 kts | 253° |
| 2026-04-22 00:55 | -34.57256 | 179.97483 | 35942 ft | 421 kts | 253° |
| 2026-04-22 00:55 | -34.61872 | 179.88386 | 35931 ft | 423 kts | 252° |
| 2026-04-22 00:56 | -34.64954 | 179.82302 | 35924 ft | 423 kts | 252° |
| 2026-04-22 00:56 | -34.68038 | 179.76204 | 35923 ft | 424 kts | 253° |
| 2026-04-22 00:57 | -34.71116 | 179.70106 | 35923 ft | 424 kts | 253° |
| 2026-04-22 00:57 | -34.74192 | 179.63998 | 35967 ft | 424 kts | 252° |
| 2026-04-22 00:58 | -34.77274 | 179.57865 | 35929 ft | 426 kts | 252° |
| 2026-04-22 00:58 | -34.80366 | 179.51708 | 35926 ft | 426 kts | 252° |
| 2026-04-22 00:59 | -34.83457 | 179.45544 | 35925 ft | 427 kts | 252° |
| 2026-04-22 00:59 | -34.86544 | 179.39375 | 35924 ft | 427 kts | 252° |
| 2026-04-22 01:00 | -34.89626 | 179.33200 | 35927 ft | 427 kts | 252° |
| 2026-04-22 01:00 | -34.92706 | 179.27025 | 35924 ft | 426 kts | 252° |
| 2026-04-22 01:01 | -34.95782 | 179.20842 | 35938 ft | 427 kts | 252° |
| 2026-04-22 01:01 | -34.98860 | 179.14644 | 35931 ft | 427 kts | 252° |
| 2026-04-22 01:02 | -35.01942 | 179.08427 | 35935 ft | 429 kts | 251° |
| 2026-04-22 01:02 | -35.05024 | 179.02201 | 35928 ft | 429 kts | 251° |
| 2026-04-22 01:03 | -35.08088 | 178.96002 | 35926 ft | 429 kts | 251° |
| 2026-04-22 01:03 | -35.11165 | 178.89765 | 35929 ft | 429 kts | 252° |
| 2026-04-22 01:04 | -35.14240 | 178.83518 | 35950 ft | 429 kts | 251° |
| 2026-04-22 01:04 | -35.17316 | 178.77257 | 35942 ft | 430 kts | 251° |
| 2026-04-22 01:05 | -35.20391 | 178.70989 | 35932 ft | 430 kts | 251° |
| 2026-04-22 01:05 | -35.23467 | 178.64707 | 35933 ft | 430 kts | 251° |
| 2026-04-22 01:06 | -35.26540 | 178.58418 | 35938 ft | 431 kts | 251° |
| 2026-04-22 01:06 | -35.29614 | 178.52118 | 35939 ft | 431 kts | 251° |
| 2026-04-22 01:07 | -35.32683 | 178.45817 | 35956 ft | 431 kts | 251° |
| 2026-04-22 01:07 | -35.35754 | 178.39499 | 35940 ft | 432 kts | 251° |
| 2026-04-22 01:08 | -35.38862 | 178.33182 | 35937 ft | 433 kts | 251° |
| 2026-04-22 01:08 | -35.41994 | 178.26866 | 35938 ft | 434 kts | 251° |
| 2026-04-22 01:09 | -35.45126 | 178.20536 | 35934 ft | 434 kts | 251° |
| 2026-04-22 01:09 | -35.48247 | 178.14205 | 35936 ft | 434 kts | 251° |
| 2026-04-22 01:10 | -35.51365 | 178.07857 | 35966 ft | 435 kts | 250° |
| 2026-04-22 01:10 | -35.54495 | 178.01475 | 35945 ft | 437 kts | 250° |
| 2026-04-22 01:11 | -35.57630 | 177.95076 | 35938 ft | 438 kts | 250° |
| 2026-04-22 01:11 | -35.60766 | 177.88662 | 35937 ft | 438 kts | 250° |
| 2026-04-22 01:12 | -35.63902 | 177.82237 | 35937 ft | 438 kts | 250° |
| 2026-04-22 01:12 | -35.67034 | 177.75805 | 35937 ft | 438 kts | 250° |
| 2026-04-22 01:13 | -35.70164 | 177.69367 | 35955 ft | 438 kts | 249° |
| 2026-04-22 01:13 | -35.73271 | 177.62961 | 35986 ft | 439 kts | 249° |
| 2026-04-22 01:14 | -35.76409 | 177.56479 | 35949 ft | 441 kts | 249° |
| 2026-04-22 01:14 | -35.79554 | 177.49971 | 35940 ft | 443 kts | 249° |
| 2026-04-22 01:15 | -35.82701 | 177.43448 | 35943 ft | 443 kts | 249° |
| 2026-04-22 01:15 | -35.85850 | 177.36910 | 35943 ft | 444 kts | 249° |
| 2026-04-22 01:16 | -35.88464 | 177.31473 | 35958 ft | 444 kts | 248° |
| 2026-04-22 01:16 | -35.91614 | 177.24908 | 35949 ft | 445 kts | 248° |
| 2026-04-22 01:17 | -35.94765 | 177.18328 | 35943 ft | 446 kts | 248° |
| 2026-04-22 01:17 | -35.97914 | 177.11739 | 35943 ft | 446 kts | 249° |
| 2026-04-22 01:18 | -36.01061 | 177.05143 | 35950 ft | 446 kts | 249° |
| 2026-04-22 01:18 | -36.04205 | 176.98540 | 35951 ft | 446 kts | 249° |
| 2026-04-22 01:19 | -36.07345 | 176.91931 | 35965 ft | 447 kts | 248° |
| 2026-04-22 01:19 | -36.10490 | 176.85298 | 35960 ft | 447 kts | 248° |
| 2026-04-22 01:20 | -36.12075 | 176.81941 | 35186 ft | 460 kts | 248° |
| 2026-04-22 01:20 | -36.13684 | 176.78533 | 34504 ft | 458 kts | 248° |
| 2026-04-22 01:20 | -36.15297 | 176.75119 | 33503 ft | 460 kts | 247° |
| 2026-04-22 01:20 | -36.16911 | 176.71703 | 32504 ft | 460 kts | 246° |
| 2026-04-22 01:21 | -36.18524 | 176.68284 | 31561 ft | 459 kts | 245° |
| 2026-04-22 01:21 | -36.20109 | 176.64922 | 30763 ft | 457 kts | 244° |
| 2026-04-22 01:21 | -36.21704 | 176.61537 | 30100 ft | 453 kts | 243° |
| 2026-04-22 01:21 | -36.23287 | 176.58176 | 29305 ft | 450 kts | 243° |
| 2026-04-22 01:22 | -36.24858 | 176.54838 | 28598 ft | 445 kts | 243° |
| 2026-04-22 01:22 | -36.26405 | 176.51544 | 27945 ft | 440 kts | 242° |
| 2026-04-22 01:22 | -36.27935 | 176.48283 | 27308 ft | 435 kts | 242° |
| 2026-04-22 01:22 | -36.29446 | 176.45058 | 26660 ft | 431 kts | 242° |
| 2026-04-22 01:23 | -36.30942 | 176.41858 | 26027 ft | 427 kts | 242° |
| 2026-04-22 01:23 | -36.32421 | 176.38694 | 25415 ft | 423 kts | 242° |
| 2026-04-22 01:23 | -36.33889 | 176.35550 | 24805 ft | 420 kts | 242° |
| 2026-04-22 01:23 | -36.35346 | 176.32427 | 24200 ft | 417 kts | 242° |
| 2026-04-22 01:24 | -36.36790 | 176.29327 | 23604 ft | 414 kts | 242° |
| 2026-04-22 01:24 | -36.38225 | 176.26246 | 22933 ft | 410 kts | 242° |
| 2026-04-22 01:24 | -36.39643 | 176.23199 | 22343 ft | 405 kts | 242° |
| 2026-04-22 01:24 | -36.41045 | 176.20180 | 21742 ft | 402 kts | 242° |
| 2026-04-22 01:25 | -36.42434 | 176.17192 | 21148 ft | 398 kts | 241° |
| 2026-04-22 01:25 | -36.43811 | 176.14226 | 20572 ft | 395 kts | 241° |
| 2026-04-22 01:25 | -36.45173 | 176.11284 | 19988 ft | 392 kts | 241° |
| 2026-04-22 01:25 | -36.46528 | 176.08359 | 19443 ft | 389 kts | 242° |
| 2026-04-22 01:26 | -36.47874 | 176.05454 | 18865 ft | 387 kts | 241° |
| 2026-04-22 01:26 | -36.49211 | 176.02564 | 18308 ft | 384 kts | 241° |
| 2026-04-22 01:26 | -36.50537 | 175.99695 | 17692 ft | 382 kts | 242° |
| 2026-04-22 01:26 | -36.51855 | 175.96838 | 17083 ft | 379 kts | 242° |
| 2026-04-22 01:27 | -36.53157 | 175.94012 | 16508 ft | 376 kts | 242° |
| 2026-04-22 01:27 | -36.54449 | 175.91206 | 15956 ft | 372 kts | 242° |
| 2026-04-22 01:27 | -36.55734 | 175.88419 | 15405 ft | 369 kts | 242° |
| 2026-04-22 01:27 | -36.57004 | 175.85661 | 14868 ft | 366 kts | 242° |
| 2026-04-22 01:28 | -36.58263 | 175.82917 | 14332 ft | 364 kts | 242° |
| 2026-04-22 01:28 | -36.59515 | 175.80192 | 13793 ft | 362 kts | 242° |
| 2026-04-22 01:28 | -36.60759 | 175.77477 | 13194 ft | 360 kts | 241° |
| 2026-04-22 01:28 | -36.61999 | 175.74776 | 12631 ft | 358 kts | 241° |
| 2026-04-22 01:29 | -36.63226 | 175.72097 | 12095 ft | 355 kts | 241° |
| 2026-04-22 01:29 | -36.64434 | 175.69460 | 11873 ft | 343 kts | 240° |
| 2026-04-22 01:29 | -36.65586 | 175.66942 | 11711 ft | 323 kts | 240° |
| 2026-04-22 01:29 | -36.66677 | 175.64557 | 11592 ft | 311 kts | 241° |
| 2026-04-22 01:30 | -36.67737 | 175.62235 | 11265 ft | 308 kts | 240° |
| 2026-04-22 01:30 | -36.68792 | 175.59926 | 10909 ft | 307 kts | 239° |
| 2026-04-22 01:30 | -36.69851 | 175.57610 | 10532 ft | 309 kts | 239° |
| 2026-04-22 01:30 | -36.70905 | 175.55301 | 10357 ft | 302 kts | 238° |
| 2026-04-22 01:31 | -36.71903 | 175.53117 | 10218 ft | 293 kts | 238° |
| 2026-04-22 01:31 | -36.72918 | 175.50897 | 10067 ft | 284 kts | 239° |
| 2026-04-22 01:31 | -36.73881 | 175.48783 | 9850 ft | 279 kts | 238° |
| 2026-04-22 01:31 | -36.74838 | 175.46681 | 9516 ft | 278 kts | 239° |
| 2026-04-22 01:32 | -36.75790 | 175.44593 | 9188 ft | 277 kts | 239° |
| 2026-04-22 01:32 | -36.76723 | 175.42538 | 8863 ft | 275 kts | 238° |
| 2026-04-22 01:32 | -36.77673 | 175.40445 | 8534 ft | 273 kts | 237° |
| 2026-04-22 01:32 | -36.78595 | 175.38414 | 8217 ft | 272 kts | 239° |
| 2026-04-22 01:33 | -36.79522 | 175.36367 | 7897 ft | 270 kts | 238° |
| 2026-04-22 01:33 | -36.80444 | 175.34333 | 7583 ft | 269 kts | 238° |
| 2026-04-22 01:33 | -36.81361 | 175.32306 | 7261 ft | 268 kts | 238° |
| 2026-04-22 01:33 | -36.82268 | 175.30299 | 6981 ft | 258 kts | 238° |
| 2026-04-22 01:34 | -36.83137 | 175.28376 | 6583 ft | 254 kts | 238° |
| 2026-04-22 01:34 | -36.83999 | 175.26475 | 6394 ft | 249 kts | 239° |
| 2026-04-22 01:34 | -36.84849 | 175.24601 | 6060 ft | 249 kts | 238° |
| 2026-04-22 01:34 | -36.85703 | 175.22723 | 5752 ft | 248 kts | 237° |
| 2026-04-22 01:35 | -36.86541 | 175.20875 | 5657 ft | 239 kts | 238° |
| 2026-04-22 01:35 | -36.87361 | 175.19063 | 5502 ft | 246 kts | 239° |
| 2026-04-22 01:35 | -36.88247 | 175.17236 | 5178 ft | 243 kts | 228° |
| 2026-04-22 01:35 | -36.89538 | 175.16003 | 4996 ft | 226 kts | 205° |
| 2026-04-22 01:36 | -36.90780 | 175.14923 | 4880 ft | 216 kts | 228° |
| 2026-04-22 01:36 | -36.91487 | 175.13280 | 4807 ft | 213 kts | 243° |
| 2026-04-22 01:36 | -36.92053 | 175.11595 | 4825 ft | 205 kts | 244° |
| 2026-04-22 01:36 | -36.92545 | 175.09962 | 4763 ft | 199 kts | 244° |
| 2026-04-22 01:37 | -36.93015 | 175.08316 | 4621 ft | 204 kts | 246° |
| 2026-04-22 01:37 | -36.93483 | 175.06632 | 4338 ft | 205 kts | 245° |
| 2026-04-22 01:37 | -36.93948 | 175.04956 | 4064 ft | 203 kts | 246° |
| 2026-04-22 01:37 | -36.94404 | 175.03298 | 3802 ft | 199 kts | 246° |
| 2026-04-22 01:38 | -36.94850 | 175.01674 | 3512 ft | 197 kts | 246° |
| 2026-04-22 01:38 | -36.95287 | 175.00092 | 3261 ft | 189 kts | 246° |
| 2026-04-22 01:38 | -36.95708 | 174.98569 | 3022 ft | 182 kts | 245° |
| 2026-04-22 01:38 | -36.96112 | 174.97101 | 2775 ft | 174 kts | 245° |
| 2026-04-22 01:39 | -36.96495 | 174.95713 | 2539 ft | 166 kts | 246° |
| 2026-04-22 01:39 | -36.96856 | 174.94397 | 2319 ft | 153 kts | 244° |
| 2026-04-22 01:39 | -36.97199 | 174.93184 | 2164 ft | 149 kts | 245° |
| 2026-04-22 01:39 | -36.97539 | 174.91948 | 1913 ft | 149 kts | 246° |
| 2026-04-22 01:40 | -36.97861 | 174.90735 | 1727 ft | 148 kts | 246° |
| 2026-04-22 01:40 | -36.98196 | 174.89523 | 1554 ft | 146 kts | 243° |
| 2026-04-22 01:40 | -36.98536 | 174.88328 | 1374 ft | 147 kts | 245° |
| 2026-04-22 01:40 | -36.98868 | 174.87113 | 1158 ft | 150 kts | 245° |
| 2026-04-22 01:41 | -36.99200 | 174.85891 | 923 ft | 147 kts | 245° |
| 2026-04-22 01:41 | -36.99530 | 174.84697 | 725 ft | 144 kts | 245° |
| 2026-04-22 01:41 | -36.99856 | 174.83503 | 553 ft | 146 kts | 245° |
| 2026-04-22 01:41 | -37.00032 | 174.82859 | 422 ft | 142 kts | 247° |
| 2026-04-22 01:42 | -37.00359 | 174.81702 | 246 ft | 145 kts | 248° |
| 2026-04-22 01:42 | -37.00683 | 174.80508 | 71 ft | 145 kts | 248° |
| 2026-04-22 01:42 | -37.00999 | 174.79371 | 30 ft | 121 kts | 250° |
| 2026-04-22 01:42 | -37.01212 | 174.78601 | 30 ft | 62 kts | 251° |
| 2026-04-22 01:43 | -37.01247 | 174.78273 | 30 ft | 34 kts | 280° |
| 2026-04-22 01:43 | -37.01212 | 174.78100 | 30 ft | 15 kts | 309° |
| 2026-04-22 01:43 | -37.01151 | 174.78123 | 30 ft | 11 kts | 67° |
| 2026-04-22 01:43 | -37.01125 | 174.78213 | 30 ft | 11 kts | 71° |
| 2026-04-22 01:44 | -37.01101 | 174.78303 | 30 ft | 11 kts | 71° |
| 2026-04-22 01:44 | -37.01060 | 174.78381 | 30 ft | 11 kts | 26° |
| 2026-04-22 01:44 | -37.00989 | 174.78370 | 30 ft | 9 kts | 340° |
| 2026-04-22 01:44 | -37.00944 | 174.78355 | 30 ft | 7 kts | 352° |
| 2026-04-22 01:45 | -37.00895 | 174.78341 | 30 ft | 7 kts | 332° |
| 2026-04-22 01:45 | -37.00854 | 174.78302 | 30 ft | 7 kts | 324° |
| 2026-04-22 01:45 | -37.00839 | 174.78287 | 30 ft | 0 kts | 324° |